sensor_id;sensor_type;location;lat;lon;timestamp;pressure;altitude;pressure_sealevel;temperature;humidity
47082;BME280;33066;49.296;14.470;2023-04-20T00:01:11;97026.54;;;11.33;35.95
47082;BME280;33066;49.296;14.470;2023-04-20T00:03:37;97018.13;;;11.68;35.77
47082;BME280;33066;49.296;14.470;2023-04-20T00:06:03;97014.74;;;11.79;35.52
47082;BME280;33066;49.296;14.470;2023-04-20T00:08:28;97013.52;;;11.82;35.34
47082;BME280;33066;49.296;14.470;2023-04-20T00:10:53;97010.38;;;11.68;35.34
47082;BME280;33066;49.296;14.470;2023-04-20T00:13:18;97008.25;;;11.80;35.60
47082;BME280;33066;49.296;14.470;2023-04-20T00:15:44;97006.17;;;11.55;35.93
47082;BME280;33066;49.296;14.470;2023-04-20T00:18:09;97005.18;;;11.43;35.93
47082;BME280;33066;49.296;14.470;2023-04-20T00:20:36;96999.62;;;11.70;35.82
47082;BME280;33066;49.296;14.470;2023-04-20T00:23:00;97000.74;;;11.73;35.54
47082;BME280;33066;49.296;14.470;2023-04-20T00:25:27;96999.60;;;11.44;35.62
47082;BME280;33066;49.296;14.470;2023-04-20T00:27:51;96997.13;;;11.51;35.51
47082;BME280;33066;49.296;14.470;2023-04-20T00:30:16;96991.42;;;11.52;35.52
47082;BME280;33066;49.296;14.470;2023-04-20T00:32:41;96984.56;;;11.59;35.42
47082;BME280;33066;49.296;14.470;2023-04-20T00:35:07;96986.74;;;11.44;35.37
47082;BME280;33066;49.296;14.470;2023-04-20T00:37:34;96989.55;;;11.60;35.39
47082;BME280;33066;49.296;14.470;2023-04-20T00:39:57;96992.73;;;11.58;35.35
47082;BME280;33066;49.296;14.470;2023-04-20T00:42:22;96992.38;;;11.47;35.55
47082;BME280;33066;49.296;14.470;2023-04-20T00:44:47;96994.95;;;11.67;35.58
47082;BME280;33066;49.296;14.470;2023-04-20T00:47:13;96993.76;;;11.72;35.58
47082;BME280;33066;49.296;14.470;2023-04-20T00:49:38;96992.31;;;11.66;35.67
47082;BME280;33066;49.296;14.470;2023-04-20T00:52:04;96988.47;;;11.62;35.64
47082;BME280;33066;49.296;14.470;2023-04-20T00:54:31;96988.95;;;11.51;35.81
47082;BME280;33066;49.296;14.470;2023-04-20T00:56:54;96989.51;;;11.53;35.89
47082;BME280;33066;49.296;14.470;2023-04-20T00:59:19;96990.11;;;11.46;35.93
47082;BME280;33066;49.296;14.470;2023-04-20T01:01:44;96993.24;;;11.45;36.02
47082;BME280;33066;49.296;14.470;2023-04-20T01:04:10;96988.98;;;11.44;36.04
47082;BME280;33066;49.296;14.470;2023-04-20T01:06:35;96983.57;;;11.45;35.90
47082;BME280;33066;49.296;14.470;2023-04-20T01:09:01;96982.36;;;11.38;36.06
47082;BME280;33066;49.296;14.470;2023-04-20T01:11:26;96979.65;;;11.22;36.03
47082;BME280;33066;49.296;14.470;2023-04-20T01:13:51;96975.50;;;11.54;35.93
47082;BME280;33066;49.296;14.470;2023-04-20T01:16:16;96971.61;;;11.30;36.00
47082;BME280;33066;49.296;14.470;2023-04-20T01:18:43;96970.91;;;11.35;35.97
47082;BME280;33066;49.296;14.470;2023-04-20T01:21:07;96970.30;;;11.53;35.90
47082;BME280;33066;49.296;14.470;2023-04-20T01:23:33;96967.85;;;11.53;35.96
47082;BME280;33066;49.296;14.470;2023-04-20T01:25:57;96964.97;;;11.51;35.96
47082;BME280;33066;49.296;14.470;2023-04-20T01:28:24;96961.82;;;11.39;36.01
47082;BME280;33066;49.296;14.470;2023-04-20T01:30:47;96957.55;;;11.36;35.99
47082;BME280;33066;49.296;14.470;2023-04-20T01:33:13;96953.25;;;11.09;36.08
47082;BME280;33066;49.296;14.470;2023-04-20T01:35:42;96949.70;;;11.13;36.11
47082;BME280;33066;49.296;14.470;2023-04-20T01:38:05;96954.14;;;11.44;36.07
47082;BME280;33066;49.296;14.470;2023-04-20T01:40:29;96958.67;;;11.44;36.02
47082;BME280;33066;49.296;14.470;2023-04-20T01:42:54;96958.40;;;11.39;36.11
47082;BME280;33066;49.296;14.470;2023-04-20T01:45:20;96955.92;;;11.29;36.11
47082;BME280;33066;49.296;14.470;2023-04-20T01:47:45;96956.49;;;11.20;36.29
47082;BME280;33066;49.296;14.470;2023-04-20T01:50:11;96949.93;;;9.59;36.15
47082;BME280;33066;49.296;14.470;2023-04-20T01:52:37;96946.29;;;11.78;35.09
47082;BME280;33066;49.296;14.470;2023-04-20T01:55:01;96942.16;;;11.91;35.57
47082;BME280;33066;49.296;14.470;2023-04-20T01:57:26;96939.33;;;11.76;35.88
47082;BME280;33066;49.296;14.470;2023-04-20T01:59:52;96935.37;;;11.68;35.98
47082;BME280;33066;49.296;14.470;2023-04-20T02:02:17;96931.67;;;11.60;36.04
47082;BME280;33066;49.296;14.470;2023-04-20T02:04:42;96932.09;;;11.52;36.08
47082;BME280;33066;49.296;14.470;2023-04-20T02:07:08;96932.46;;;11.25;36.10
47082;BME280;33066;49.296;14.470;2023-04-20T02:09:35;96933.16;;;11.43;36.18
47082;BME280;33066;49.296;14.470;2023-04-20T02:11:58;96930.14;;;11.04;36.17
47082;BME280;33066;49.296;14.470;2023-04-20T02:14:23;96929.01;;;11.22;36.30
47082;BME280;33066;49.296;14.470;2023-04-20T02:16:48;96932.20;;;11.22;36.30
47082;BME280;33066;49.296;14.470;2023-04-20T02:19:14;96931.82;;;11.19;36.32
47082;BME280;33066;49.296;14.470;2023-04-20T02:21:39;96938.09;;;11.13;36.41
47082;BME280;33066;49.296;14.470;2023-04-20T02:24:05;96941.60;;;11.15;36.37
47082;BME280;33066;49.296;14.470;2023-04-20T02:26:30;96943.66;;;11.16;36.39
47082;BME280;33066;49.296;14.470;2023-04-20T02:28:55;96945.88;;;11.12;36.37
47082;BME280;33066;49.296;14.470;2023-04-20T02:31:21;96946.72;;;11.10;36.56
47082;BME280;33066;49.296;14.470;2023-04-20T02:33:47;96945.02;;;11.13;36.70
47082;BME280;33066;49.296;14.470;2023-04-20T02:36:12;96946.12;;;11.15;36.74
47082;BME280;33066;49.296;14.470;2023-04-20T02:38:37;96947.09;;;11.16;36.82
47082;BME280;33066;49.296;14.470;2023-04-20T02:41:02;96942.85;;;10.93;36.79
47082;BME280;33066;49.296;14.470;2023-04-20T02:43:28;96938.76;;;11.10;36.91
47082;BME280;33066;49.296;14.470;2023-04-20T02:45:53;96933.63;;;11.14;36.81
47082;BME280;33066;49.296;14.470;2023-04-20T02:48:18;96934.54;;;11.12;36.85
47082;BME280;33066;49.296;14.470;2023-04-20T02:50:44;96935.55;;;10.90;37.00
47082;BME280;33066;49.296;14.470;2023-04-20T02:53:09;96934.57;;;11.22;36.78
47082;BME280;33066;49.296;14.470;2023-04-20T02:55:35;96935.52;;;11.20;36.76
47082;BME280;33066;49.296;14.470;2023-04-20T02:58:01;96934.86;;;11.17;36.87
47082;BME280;33066;49.296;14.470;2023-04-20T03:00:26;96935.08;;;11.16;37.13
47082;BME280;33066;49.296;14.470;2023-04-20T03:02:51;96937.72;;;11.22;37.00
47082;BME280;33066;49.296;14.470;2023-04-20T03:05:17;96942.07;;;11.25;37.05
47082;BME280;33066;49.296;14.470;2023-04-20T03:07:42;96943.98;;;11.25;36.97
47082;BME280;33066;49.296;14.470;2023-04-20T03:13:03;96946.83;;;11.46;36.38
47082;BME280;33066;49.296;14.470;2023-04-20T03:15:28;96944.93;;;11.55;36.68
47082;BME280;33066;49.296;14.470;2023-04-20T03:17:53;96942.38;;;11.44;36.81
47082;BME280;33066;49.296;14.470;2023-04-20T03:20:18;96940.07;;;11.37;37.02
47082;BME280;33066;49.296;14.470;2023-04-20T03:22:43;96938.86;;;11.10;37.11
47082;BME280;33066;49.296;14.470;2023-04-20T03:25:08;96939.21;;;11.31;37.26
47082;BME280;33066;49.296;14.470;2023-04-20T03:27:33;96940.98;;;11.25;37.42
47082;BME280;33066;49.296;14.470;2023-04-20T03:29:59;96938.73;;;11.12;37.59
47082;BME280;33066;49.296;14.470;2023-04-20T03:32:24;96938.57;;;11.13;37.89
47082;BME280;33066;49.296;14.470;2023-04-20T03:34:49;96937.06;;;11.03;37.88
47082;BME280;33066;49.296;14.470;2023-04-20T03:37:15;96936.60;;;10.90;37.91
47082;BME280;33066;49.296;14.470;2023-04-20T03:39:40;96938.06;;;10.97;38.24
47082;BME280;33066;49.296;14.470;2023-04-20T03:42:06;96938.32;;;11.05;38.42
47082;BME280;33066;49.296;14.470;2023-04-20T03:44:31;96936.82;;;11.16;38.31
47082;BME280;33066;49.296;14.470;2023-04-20T03:46:56;96933.05;;;11.25;38.02
47082;BME280;33066;49.296;14.470;2023-04-20T03:49:23;96932.72;;;11.13;38.15
47082;BME280;33066;49.296;14.470;2023-04-20T03:51:47;96935.91;;;11.07;38.25
47082;BME280;33066;49.296;14.470;2023-04-20T03:54:13;96935.36;;;10.97;38.43
47082;BME280;33066;49.296;14.470;2023-04-20T03:56:38;96934.52;;;10.86;38.62
47082;BME280;33066;49.296;14.470;2023-04-20T03:59:03;96939.84;;;11.10;38.33
47082;BME280;33066;49.296;14.470;2023-04-20T04:01:29;96939.26;;;11.15;38.67
47082;BME280;33066;49.296;14.470;2023-04-20T04:03:55;96941.02;;;11.26;39.66
47082;BME280;33066;49.296;14.470;2023-04-20T04:06:19;96942.27;;;11.30;39.57
47082;BME280;33066;49.296;14.470;2023-04-20T04:08:45;96941.54;;;11.32;39.06
47082;BME280;33066;49.296;14.470;2023-04-20T04:11:10;96944.75;;;11.39;39.93
47082;BME280;33066;49.296;14.470;2023-04-20T04:13:35;96944.69;;;11.16;40.36
47082;BME280;33066;49.296;14.470;2023-04-20T04:16:01;96940.35;;;11.41;40.33
47082;BME280;33066;49.296;14.470;2023-04-20T04:18:27;96938.30;;;11.40;40.24
47082;BME280;33066;49.296;14.470;2023-04-20T04:20:53;96936.10;;;11.45;39.53
47082;BME280;33066;49.296;14.470;2023-04-20T04:23:19;96934.90;;;11.48;40.14
47082;BME280;33066;49.296;14.470;2023-04-20T04:25:43;96934.15;;;11.44;39.82
47082;BME280;33066;49.296;14.470;2023-04-20T04:28:09;96932.06;;;11.16;39.97
47082;BME280;33066;49.296;14.470;2023-04-20T04:30:34;96930.87;;;11.18;39.85
47082;BME280;33066;49.296;14.470;2023-04-20T04:33:00;96930.59;;;11.41;39.37
47082;BME280;33066;49.296;14.470;2023-04-20T04:35:26;96933.14;;;11.08;39.66
47082;BME280;33066;49.296;14.470;2023-04-20T04:37:51;96932.38;;;11.30;39.98
47082;BME280;33066;49.296;14.470;2023-04-20T04:40:17;96928.39;;;11.30;39.99
47082;BME280;33066;49.296;14.470;2023-04-20T04:42:43;96929.99;;;11.01;39.95
47082;BME280;33066;49.296;14.470;2023-04-20T04:45:08;96930.38;;;11.21;39.93
47082;BME280;33066;49.296;14.470;2023-04-20T04:47:33;96933.55;;;11.25;40.12
47082;BME280;33066;49.296;14.470;2023-04-20T04:49:59;96935.60;;;11.20;39.99
47082;BME280;33066;49.296;14.470;2023-04-20T04:52:24;96938.28;;;11.17;40.23
47082;BME280;33066;49.296;14.470;2023-04-20T04:54:51;96942.42;;;11.10;40.60
47082;BME280;33066;49.296;14.470;2023-04-20T04:57:14;96941.61;;;11.15;40.45
47082;BME280;33066;49.296;14.470;2023-04-20T04:59:40;96947.12;;;11.22;40.06
47082;BME280;33066;49.296;14.470;2023-04-20T05:02:06;96949.93;;;11.19;39.82
47082;BME280;33066;49.296;14.470;2023-04-20T05:04:31;96951.86;;;11.01;39.66
47082;BME280;33066;49.296;14.470;2023-04-20T05:06:57;96950.56;;;11.27;39.82
47082;BME280;33066;49.296;14.470;2023-04-20T05:09:22;96950.35;;;11.47;39.78
47082;BME280;33066;49.296;14.470;2023-04-20T05:11:48;96950.53;;;11.20;39.53
47082;BME280;33066;49.296;14.470;2023-04-20T05:14:13;96951.05;;;11.24;39.77
47082;BME280;33066;49.296;14.470;2023-04-20T05:16:38;96950.12;;;11.26;39.78
47082;BME280;33066;49.296;14.470;2023-04-20T05:19:04;96948.06;;;11.32;39.73
47082;BME280;33066;49.296;14.470;2023-04-20T05:21:29;96947.65;;;11.40;39.64
47082;BME280;33066;49.296;14.470;2023-04-20T05:23:54;96946.68;;;11.40;39.54
47082;BME280;33066;49.296;14.470;2023-04-20T05:26:20;96949.97;;;11.19;39.67
47082;BME280;33066;49.296;14.470;2023-04-20T05:28:45;96953.45;;;11.55;39.51
47082;BME280;33066;49.296;14.470;2023-04-20T05:31:10;96955.99;;;11.22;39.49
47082;BME280;33066;49.296;14.470;2023-04-20T05:33:35;96956.61;;;11.44;39.87
47082;BME280;33066;49.296;14.470;2023-04-20T05:36:00;96957.20;;;11.53;39.53
47082;BME280;33066;49.296;14.470;2023-04-20T05:38:26;96956.65;;;11.65;39.63
47082;BME280;33066;49.296;14.470;2023-04-20T05:40:51;96955.83;;;11.66;39.66
47082;BME280;33066;49.296;14.470;2023-04-20T05:43:16;96960.85;;;11.66;39.68
47082;BME280;33066;49.296;14.470;2023-04-20T05:45:42;96959.01;;;11.49;39.89
47082;BME280;33066;49.296;14.470;2023-04-20T05:48:08;96960.64;;;11.74;39.87
47082;BME280;33066;49.296;14.470;2023-04-20T05:50:34;96963.11;;;11.70;39.75
47082;BME280;33066;49.296;14.470;2023-04-20T05:52:59;96963.00;;;11.57;39.03
47082;BME280;33066;49.296;14.470;2023-04-20T05:55:24;96960.52;;;11.68;39.03
47082;BME280;33066;49.296;14.470;2023-04-20T05:57:50;96961.23;;;11.82;39.09
47082;BME280;33066;49.296;14.470;2023-04-20T06:00:15;96957.02;;;11.95;39.09
47082;BME280;33066;49.296;14.470;2023-04-20T06:02:41;96952.52;;;11.84;39.42
47082;BME280;33066;49.296;14.470;2023-04-20T06:05:06;96951.65;;;11.63;39.39
47082;BME280;33066;49.296;14.470;2023-04-20T06:07:31;96950.59;;;11.69;39.85
47082;BME280;33066;49.296;14.470;2023-04-20T06:09:56;96950.22;;;11.77;40.33
47082;BME280;33066;49.296;14.470;2023-04-20T06:12:22;96946.81;;;12.00;40.91
47082;BME280;33066;49.296;14.470;2023-04-20T06:14:48;96948.36;;;12.05;41.21
47082;BME280;33066;49.296;14.470;2023-04-20T06:17:13;96950.02;;;11.87;40.65
47082;BME280;33066;49.296;14.470;2023-04-20T06:19:38;96951.87;;;11.96;40.93
47082;BME280;33066;49.296;14.470;2023-04-20T06:22:05;96950.59;;;12.12;40.46
47082;BME280;33066;49.296;14.470;2023-04-20T06:24:30;96950.48;;;12.16;40.39
47082;BME280;33066;49.296;14.470;2023-04-20T06:26:54;96950.55;;;12.21;39.99
47082;BME280;33066;49.296;14.470;2023-04-20T06:29:19;96949.62;;;12.20;40.05
47082;BME280;33066;49.296;14.470;2023-04-20T06:31:45;96947.51;;;12.25;40.46
47082;BME280;33066;49.296;14.470;2023-04-20T06:34:11;96945.67;;;12.26;40.33
47082;BME280;33066;49.296;14.470;2023-04-20T06:36:42;96943.99;;;12.21;40.48
47082;BME280;33066;49.296;14.470;2023-04-20T06:39:03;96943.68;;;12.19;40.23
47082;BME280;33066;49.296;14.470;2023-04-20T06:41:27;96940.68;;;12.24;40.35
47082;BME280;33066;49.296;14.470;2023-04-20T06:43:53;96940.46;;;12.39;40.06
47082;BME280;33066;49.296;14.470;2023-04-20T06:46:18;96939.82;;;12.16;40.14
47082;BME280;33066;49.296;14.470;2023-04-20T06:48:45;96944.35;;;12.41;40.35
47082;BME280;33066;49.296;14.470;2023-04-20T06:51:11;96957.29;;;12.41;39.61
47082;BME280;33066;49.296;14.470;2023-04-20T06:53:35;96959.83;;;12.46;39.60
47082;BME280;33066;49.296;14.470;2023-04-20T06:56:00;96960.54;;;12.30;39.60
47082;BME280;33066;49.296;14.470;2023-04-20T06:58:27;96959.97;;;12.08;39.89
47082;BME280;33066;49.296;14.470;2023-04-20T07:00:50;96957.84;;;12.35;40.44
47082;BME280;33066;49.296;14.470;2023-04-20T07:03:16;96961.90;;;12.14;39.68
47082;BME280;33066;49.296;14.470;2023-04-20T07:05:42;96961.36;;;12.34;39.75
47082;BME280;33066;49.296;14.470;2023-04-20T07:08:07;96961.04;;;12.41;39.98
47082;BME280;33066;49.296;14.470;2023-04-20T07:10:32;96956.42;;;12.30;39.69
47082;BME280;33066;49.296;14.470;2023-04-20T07:12:58;96959.46;;;12.41;39.86
47082;BME280;33066;49.296;14.470;2023-04-20T07:15:24;96959.96;;;12.52;39.82
47082;BME280;33066;49.296;14.470;2023-04-20T07:17:49;96963.14;;;12.60;39.67
47082;BME280;33066;49.296;14.470;2023-04-20T07:20:14;96959.36;;;12.63;39.54
47082;BME280;33066;49.296;14.470;2023-04-20T07:22:40;96957.85;;;12.75;39.47
47082;BME280;33066;49.296;14.470;2023-04-20T07:25:07;96958.51;;;12.48;39.58
47082;BME280;33066;49.296;14.470;2023-04-20T07:27:35;96955.46;;;12.52;39.57
47082;BME280;33066;49.296;14.470;2023-04-20T07:29:57;96955.04;;;12.90;39.41
47082;BME280;33066;49.296;14.470;2023-04-20T07:32:21;96955.00;;;13.02;39.59
47082;BME280;33066;49.296;14.470;2023-04-20T07:34:46;96952.91;;;12.66;39.36
47082;BME280;33066;49.296;14.470;2023-04-20T07:37:11;96949.30;;;13.18;39.33
47082;BME280;33066;49.296;14.470;2023-04-20T07:39:37;96946.90;;;12.81;39.28
47082;BME280;33066;49.296;14.470;2023-04-20T07:42:03;96944.78;;;12.85;39.15
47082;BME280;33066;49.296;14.470;2023-04-20T07:44:28;96946.71;;;12.80;39.18
47082;BME280;33066;49.296;14.470;2023-04-20T07:46:54;96952.30;;;13.14;39.19
47082;BME280;33066;49.296;14.470;2023-04-20T07:49:19;96951.67;;;13.32;39.16
47082;BME280;33066;49.296;14.470;2023-04-20T07:51:45;96950.80;;;12.99;39.01
47082;BME280;33066;49.296;14.470;2023-04-20T07:54:11;96945.52;;;13.17;38.90
47082;BME280;33066;49.296;14.470;2023-04-20T07:56:36;96945.89;;;13.06;38.88
47082;BME280;33066;49.296;14.470;2023-04-20T07:59:01;96948.44;;;13.38;38.47
47082;BME280;33066;49.296;14.470;2023-04-20T08:01:27;96948.87;;;13.26;38.76
47082;BME280;33066;49.296;14.470;2023-04-20T08:03:52;96947.89;;;13.51;39.02
47082;BME280;33066;49.296;14.470;2023-04-20T08:06:17;96951.34;;;13.71;38.03
47082;BME280;33066;49.296;14.470;2023-04-20T08:08:42;96950.93;;;13.59;37.90
47082;BME280;33066;49.296;14.470;2023-04-20T08:11:08;96952.60;;;13.79;37.94
47082;BME280;33066;49.296;14.470;2023-04-20T08:13:34;96949.00;;;14.03;38.12
47082;BME280;33066;49.296;14.470;2023-04-20T08:16:01;96949.97;;;14.04;37.42
47082;BME280;33066;49.296;14.470;2023-04-20T08:18:25;96954.21;;;14.22;37.32
47082;BME280;33066;49.296;14.470;2023-04-20T08:20:50;96947.98;;;14.22;36.94
47082;BME280;33066;49.296;14.470;2023-04-20T08:23:16;96946.69;;;14.43;36.84
47082;BME280;33066;49.296;14.470;2023-04-20T08:25:41;96945.50;;;14.44;36.33
47082;BME280;33066;49.296;14.470;2023-04-20T08:28:06;96942.93;;;14.40;36.09
47082;BME280;33066;49.296;14.470;2023-04-20T08:30:31;96944.03;;;14.44;35.91
47082;BME280;33066;49.296;14.470;2023-04-20T08:32:57;96940.87;;;14.65;36.18
47082;BME280;33066;49.296;14.470;2023-04-20T08:35:22;96935.51;;;14.40;36.18
47082;BME280;33066;49.296;14.470;2023-04-20T08:37:47;96935.35;;;14.56;36.41
47082;BME280;33066;49.296;14.470;2023-04-20T08:40:13;96934.23;;;14.50;36.51
47082;BME280;33066;49.296;14.470;2023-04-20T08:42:38;96939.46;;;14.16;37.02
47082;BME280;33066;49.296;14.470;2023-04-20T08:45:04;96935.07;;;14.23;37.06
47082;BME280;33066;49.296;14.470;2023-04-20T08:47:30;96936.36;;;14.23;36.65
47082;BME280;33066;49.296;14.470;2023-04-20T08:49:54;96935.60;;;14.46;37.20
47082;BME280;33066;49.296;14.470;2023-04-20T08:52:19;96936.39;;;14.65;37.11
47082;BME280;33066;49.296;14.470;2023-04-20T08:54:44;96933.80;;;14.25;37.64
47082;BME280;33066;49.296;14.470;2023-04-20T08:57:10;96935.13;;;14.20;37.06
47082;BME280;33066;49.296;14.470;2023-04-20T08:59:37;96931.65;;;14.29;37.30
47082;BME280;33066;49.296;14.470;2023-04-20T09:02:08;96932.81;;;14.33;37.23
47082;BME280;33066;49.296;14.470;2023-04-20T09:04:27;96935.17;;;14.28;37.42
47082;BME280;33066;49.296;14.470;2023-04-20T09:06:54;96937.26;;;14.29;37.05
47082;BME280;33066;49.296;14.470;2023-04-20T09:09:19;96938.09;;;14.06;37.26
47082;BME280;33066;49.296;14.470;2023-04-20T09:11:44;96941.46;;;14.03;37.42
47082;BME280;33066;49.296;14.470;2023-04-20T09:14:10;96946.77;;;14.19;37.51
47082;BME280;33066;49.296;14.470;2023-04-20T09:16:35;96947.01;;;13.90;37.33
47082;BME280;33066;49.296;14.470;2023-04-20T09:19:00;96947.00;;;14.09;37.29
47082;BME280;33066;49.296;14.470;2023-04-20T09:21:26;96945.70;;;13.92;37.40
47082;BME280;33066;49.296;14.470;2023-04-20T09:23:56;96945.97;;;13.95;37.20
47082;BME280;33066;49.296;14.470;2023-04-20T09:26:17;96947.21;;;14.26;37.45
47082;BME280;33066;49.296;14.470;2023-04-20T09:28:40;96950.57;;;14.12;37.39
47082;BME280;33066;49.296;14.470;2023-04-20T09:33:31;96947.74;;;14.72;37.09
47082;BME280;33066;49.296;14.470;2023-04-20T09:36:02;96944.70;;;14.58;37.29
47082;BME280;33066;49.296;14.470;2023-04-20T09:38:25;96942.19;;;14.69;37.29
47082;BME280;33066;49.296;14.470;2023-04-20T09:40:47;96937.30;;;14.67;37.41
47082;BME280;33066;49.296;14.470;2023-04-20T09:43:17;96937.56;;;14.78;37.26
47082;BME280;33066;49.296;14.470;2023-04-20T09:45:38;96932.86;;;14.88;37.20
47082;BME280;33066;49.296;14.470;2023-04-20T09:48:06;96928.26;;;14.67;36.95
47082;BME280;33066;49.296;14.470;2023-04-20T09:50:29;96921.89;;;14.97;36.74
47082;BME280;33066;49.296;14.470;2023-04-20T09:52:54;96921.06;;;15.25;36.91
47082;BME280;33066;49.296;14.470;2023-04-20T09:55:20;96910.73;;;15.18;36.48
47082;BME280;33066;49.296;14.470;2023-04-20T09:57:45;96909.64;;;15.05;36.33
47082;BME280;33066;49.296;14.470;2023-04-20T10:00:11;96913.26;;;15.35;36.03
47082;BME280;33066;49.296;14.470;2023-04-20T10:02:36;96912.72;;;15.06;36.25
47082;BME280;33066;49.296;14.470;2023-04-20T10:05:04;96906.42;;;15.03;36.44
47082;BME280;33066;49.296;14.470;2023-04-20T10:07:27;96906.65;;;14.93;36.75
47082;BME280;33066;49.296;14.470;2023-04-20T10:10:04;96904.33;;;14.97;36.61
47082;BME280;33066;49.296;14.470;2023-04-20T10:12:19;96900.54;;;14.89;36.96
47082;BME280;33066;49.296;14.470;2023-04-20T10:14:42;96899.89;;;15.04;36.93
47082;BME280;33066;49.296;14.470;2023-04-20T10:17:08;96903.51;;;14.94;36.57
47082;BME280;33066;49.296;14.470;2023-04-20T10:19:38;96902.70;;;15.44;36.53
47082;BME280;33066;49.296;14.470;2023-04-20T10:21:59;96903.39;;;15.54;36.47
47082;BME280;33066;49.296;14.470;2023-04-20T10:24:27;96900.97;;;15.17;36.50
47082;BME280;33066;49.296;14.470;2023-04-20T10:26:49;96899.08;;;15.41;36.62
47082;BME280;33066;49.296;14.470;2023-04-20T10:29:22;96892.71;;;15.48;36.54
47082;BME280;33066;49.296;14.470;2023-04-20T10:31:41;96888.19;;;15.20;36.43
47082;BME280;33066;49.296;14.470;2023-04-20T10:34:06;96887.53;;;14.82;35.72
47082;BME280;33066;49.296;14.470;2023-04-20T10:36:32;96892.83;;;14.36;36.99
47082;BME280;33066;49.296;14.470;2023-04-20T10:38:57;96889.38;;;14.40;37.31
47082;BME280;33066;49.296;14.470;2023-04-20T10:41:23;96884.69;;;14.95;36.87
47082;BME280;33066;49.296;14.470;2023-04-20T10:43:49;96880.61;;;15.45;36.72
47082;BME280;33066;49.296;14.470;2023-04-20T10:46:15;96876.12;;;15.37;36.39
47082;BME280;33066;49.296;14.470;2023-04-20T10:48:49;96878.59;;;15.29;36.11
47082;BME280;33066;49.296;14.470;2023-04-20T10:51:09;96876.72;;;15.52;36.21
47082;BME280;33066;49.296;14.470;2023-04-20T10:53:30;96871.88;;;15.66;35.83
47082;BME280;33066;49.296;14.470;2023-04-20T10:56:00;96872.09;;;15.71;35.70
47082;BME280;33066;49.296;14.470;2023-04-20T10:58:22;96870.24;;;15.66;35.53
47082;BME280;33066;49.296;14.470;2023-04-20T11:00:57;96872.01;;;16.07;35.65
47082;BME280;33066;49.296;14.470;2023-04-20T11:03:12;96868.78;;;15.80;35.69
47082;BME280;33066;49.296;14.470;2023-04-20T11:05:37;96870.67;;;15.36;36.07
47082;BME280;33066;49.296;14.470;2023-04-20T11:08:03;96870.77;;;15.79;35.90
47082;BME280;33066;49.296;14.470;2023-04-20T11:10:37;96868.85;;;15.57;36.24
47082;BME280;33066;49.296;14.470;2023-04-20T11:12:53;96863.66;;;15.74;36.40
47082;BME280;33066;49.296;14.470;2023-04-20T11:17:44;96870.68;;;15.74;36.60
47082;BME280;33066;49.296;14.470;2023-04-20T11:20:12;96868.58;;;15.76;36.32
47082;BME280;33066;49.296;14.470;2023-04-20T11:22:36;96866.77;;;15.78;35.77
47082;BME280;33066;49.296;14.470;2023-04-20T11:25:03;96865.66;;;15.90;35.83
47082;BME280;33066;49.296;14.470;2023-04-20T11:27:27;96864.62;;;16.01;35.79
47082;BME280;33066;49.296;14.470;2023-04-20T11:29:56;96860.06;;;15.85;36.05
47082;BME280;33066;49.296;14.470;2023-04-20T11:32:18;96859.27;;;15.66;36.18
47082;BME280;33066;49.296;14.470;2023-04-20T11:34:43;96857.55;;;15.84;36.24
47082;BME280;33066;49.296;14.470;2023-04-20T11:37:10;96855.61;;;15.80;35.87
47082;BME280;33066;49.296;14.470;2023-04-20T11:39:35;96850.06;;;16.05;35.74
47082;BME280;33066;49.296;14.470;2023-04-20T11:42:00;96848.16;;;16.26;35.77
47082;BME280;33066;49.296;14.470;2023-04-20T11:44:26;96852.02;;;16.18;35.85
47082;BME280;33066;49.296;14.470;2023-04-20T11:46:53;96848.99;;;16.25;35.89
47082;BME280;33066;49.296;14.470;2023-04-20T11:49:18;96844.26;;;15.75;35.95
47082;BME280;33066;49.296;14.470;2023-04-20T11:51:43;96847.47;;;15.84;36.31
47082;BME280;33066;49.296;14.470;2023-04-20T11:54:08;96849.76;;;14.93;37.10
47082;BME280;33066;49.296;14.470;2023-04-20T11:56:36;96846.41;;;15.57;37.09
47082;BME280;33066;49.296;14.470;2023-04-20T11:59:00;96844.30;;;15.95;36.58
47082;BME280;33066;49.296;14.470;2023-04-20T12:01:25;96842.33;;;16.48;35.80
47082;BME280;33066;49.296;14.470;2023-04-20T12:03:51;96839.62;;;16.13;35.54
47082;BME280;33066;49.296;14.470;2023-04-20T12:06:17;96835.70;;;16.02;35.87
47082;BME280;33066;49.296;14.470;2023-04-20T12:08:41;96829.78;;;15.59;36.43
47082;BME280;33066;49.296;14.470;2023-04-20T12:11:06;96832.59;;;15.67;36.76
47082;BME280;33066;49.296;14.470;2023-04-20T12:13:32;96831.28;;;16.06;37.20
47082;BME280;33066;49.296;14.470;2023-04-20T12:15:57;96828.75;;;16.54;36.15
47082;BME280;33066;49.296;14.470;2023-04-20T12:18:23;96827.30;;;16.66;34.88
47082;BME280;33066;49.296;14.470;2023-04-20T12:20:48;96824.36;;;16.53;35.37
47082;BME280;33066;49.296;14.470;2023-04-20T12:23:13;96826.78;;;16.93;35.54
47082;BME280;33066;49.296;14.470;2023-04-20T12:25:39;96822.75;;;17.02;35.56
47082;BME280;33066;49.296;14.470;2023-04-20T12:28:04;96822.06;;;16.97;35.40
47082;BME280;33066;49.296;14.470;2023-04-20T12:30:30;96816.03;;;16.86;35.18
47082;BME280;33066;49.296;14.470;2023-04-20T12:32:55;96818.24;;;17.42;34.49
47082;BME280;33066;49.296;14.470;2023-04-20T12:35:21;96807.05;;;17.93;33.59
47082;BME280;33066;49.296;14.470;2023-04-20T12:37:46;96803.03;;;18.17;32.67
47082;BME280;33066;49.296;14.470;2023-04-20T12:40:12;96804.27;;;19.08;32.01
47082;BME280;33066;49.296;14.470;2023-04-20T12:42:37;96792.17;;;20.02;30.79
47082;BME280;33066;49.296;14.470;2023-04-20T12:45:03;96796.04;;;20.53;29.92
47082;BME280;33066;49.296;14.470;2023-04-20T12:47:28;96796.42;;;20.38;29.32